sensor_id;sensor_type;location;lat;lon;timestamp;pressure;altitude;pressure_sealevel;temperature;humidity
2294;BME280;1155;42.644;23.264;2023-04-01T00:01:26;60044.31;;;-140.67;35.77
2294;BME280;1155;42.644;23.264;2023-04-01T00:03:54;60048.41;;;-140.67;35.88
2294;BME280;1155;42.644;23.264;2023-04-01T00:06:21;60040.22;;;-140.67;38.22
2294;BME280;1155;42.644;23.264;2023-04-01T00:08:48;60048.41;;;-140.67;38.39
2294;BME280;1155;42.644;23.264;2023-04-01T00:11:17;60048.41;;;-140.67;40.02
2294;BME280;1155;42.644;23.264;2023-04-01T00:13:44;60040.22;;;-140.67;40.97
2294;BME280;1155;42.644;23.264;2023-04-01T00:16:11;60025.88;;;-140.67;39.71
2294;BME280;1155;42.644;23.264;2023-04-01T00:18:38;60052.50;;;-140.67;38.33
2294;BME280;1155;42.644;23.264;2023-04-01T00:21:05;59995.19;;;-140.67;34.34
2294;BME280;1155;42.644;23.264;2023-04-01T00:23:32;60052.50;;;-140.67;34.65
2294;BME280;1155;42.644;23.264;2023-04-01T00:25:59;60023.84;;;-140.67;34.80
2294;BME280;1155;42.644;23.264;2023-04-01T00:28:28;60062.75;;;-140.67;36.23
2294;BME280;1155;42.644;23.264;2023-04-01T00:30:55;60064.78;;;-140.67;36.59
2294;BME280;1155;42.644;23.264;2023-04-01T00:33:22;60036.13;;;-140.67;37.31
2294;BME280;1155;42.644;23.264;2023-04-01T00:35:50;60066.84;;;-140.67;38.78
2294;BME280;1155;42.644;23.264;2023-04-01T00:38:16;60060.69;;;-140.67;40.37
2294;BME280;1155;42.644;23.264;2023-04-01T00:40:45;60040.22;;;-140.67;42.45
2294;BME280;1155;42.644;23.264;2023-04-01T00:43:14;60027.94;;;-140.67;45.59
2294;BME280;1155;42.644;23.264;2023-04-01T00:45:46;60038.19;;;-140.67;46.60
2294;BME280;1155;42.644;23.264;2023-04-01T00:48:15;60036.13;;;-140.67;49.31
2294;BME280;1155;42.644;23.264;2023-04-01T00:50:44;60032.03;;;-140.67;50.70
2294;BME280;1155;42.644;23.264;2023-04-01T00:53:12;60030.00;;;-140.67;51.88
2294;BME280;1155;42.644;23.264;2023-04-01T00:55:43;60036.13;;;-140.67;52.88
2294;BME280;1155;42.644;23.264;2023-04-01T00:58:15;60048.41;;;-140.67;55.00
2294;BME280;1155;42.644;23.264;2023-04-01T01:00:49;60044.31;;;-140.67;56.40
2294;BME280;1155;42.644;23.264;2023-04-01T01:03:17;60060.69;;;-140.67;55.86
2294;BME280;1155;42.644;23.264;2023-04-01T01:06:01;60038.19;;;-140.67;57.57
2294;BME280;1155;42.644;23.264;2023-04-01T01:08:49;60046.38;;;-140.67;56.59
2294;BME280;1155;42.644;23.264;2023-04-01T01:11:22;60023.84;;;-140.67;43.40
2294;BME280;1155;42.644;23.264;2023-04-01T01:13:59;60050.47;;;-140.67;44.12
2294;BME280;1155;42.644;23.264;2023-04-01T01:16:33;60030.00;;;-140.67;41.06
2294;BME280;1155;42.644;23.264;2023-04-01T01:19:11;60060.69;;;-140.67;39.40
2294;BME280;1155;42.644;23.264;2023-04-01T01:22:06;60052.50;;;-140.67;41.11
2294;BME280;1155;42.644;23.264;2023-04-01T01:27:31;60064.78;;;-140.67;50.37
2294;BME280;1155;42.644;23.264;2023-04-01T01:30:35;60027.94;;;-140.67;53.49
2294;BME280;1155;42.644;23.264;2023-04-01T01:33:23;60036.13;;;-140.67;55.56
2294;BME280;1155;42.644;23.264;2023-04-01T01:35:55;60056.59;;;-140.67;52.08
2294;BME280;1155;42.644;23.264;2023-04-01T01:38:27;60087.31;;;-140.67;53.86
2294;BME280;1155;42.644;23.264;2023-04-01T01:40:57;60048.41;;;-140.67;51.11
2294;BME280;1155;42.644;23.264;2023-04-01T01:43:33;60030.00;;;-140.67;53.73
2294;BME280;1155;42.644;23.264;2023-04-01T01:46:06;60036.13;;;-140.67;52.72
2294;BME280;1155;42.644;23.264;2023-04-01T01:48:36;60056.59;;;-140.67;53.02
2294;BME280;1155;42.644;23.264;2023-04-01T01:51:06;60003.38;;;-140.67;51.80
2294;BME280;1155;42.644;23.264;2023-04-01T01:53:33;60025.88;;;-140.67;48.30
2294;BME280;1155;42.644;23.264;2023-04-01T01:56:00;60030.00;;;-140.67;48.57
2294;BME280;1155;42.644;23.264;2023-04-01T01:58:31;60025.88;;;-140.67;46.63
2294;BME280;1155;42.644;23.264;2023-04-01T02:01:02;60036.13;;;-140.67;46.01
2294;BME280;1155;42.644;23.264;2023-04-01T02:03:33;60034.09;;;-140.67;41.90
2294;BME280;1155;42.644;23.264;2023-04-01T02:06:04;60054.56;;;-140.67;43.24
2294;BME280;1155;42.644;23.264;2023-04-01T02:08:35;60023.84;;;-140.67;43.81
2294;BME280;1155;42.644;23.264;2023-04-01T02:11:06;60027.94;;;-140.67;44.59
2294;BME280;1155;42.644;23.264;2023-04-01T02:13:37;60040.22;;;-140.67;43.04
2294;BME280;1155;42.644;23.264;2023-04-01T02:16:11;60032.03;;;-140.67;41.23
2294;BME280;1155;42.644;23.264;2023-04-01T02:18:41;60060.69;;;-140.67;41.27
2294;BME280;1155;42.644;23.264;2023-04-01T02:21:10;60036.13;;;-140.67;43.81
2294;BME280;1155;42.644;23.264;2023-04-01T02:23:40;60023.84;;;-140.67;43.76
2294;BME280;1155;42.644;23.264;2023-04-01T02:26:08;60025.88;;;-140.67;43.34
2294;BME280;1155;42.644;23.264;2023-04-01T02:28:38;60030.00;;;-140.67;41.56
2294;BME280;1155;42.644;23.264;2023-04-01T02:31:06;60040.22;;;-140.67;45.22
2294;BME280;1155;42.644;23.264;2023-04-01T02:33:34;60027.94;;;-140.67;46.62
2294;BME280;1155;42.644;23.264;2023-04-01T02:36:01;60048.41;;;-140.67;47.97
2294;BME280;1155;42.644;23.264;2023-04-01T02:38:28;60060.69;;;-140.67;48.17
2294;BME280;1155;42.644;23.264;2023-04-01T02:40:59;60052.50;;;-140.67;50.41
2294;BME280;1155;42.644;23.264;2023-04-01T02:43:27;60048.41;;;-140.67;51.39
2294;BME280;1155;42.644;23.264;2023-04-01T02:45:54;60070.94;;;-140.67;50.47
2294;BME280;1155;42.644;23.264;2023-04-01T02:48:21;60023.84;;;-140.67;51.96
2294;BME280;1155;42.644;23.264;2023-04-01T02:50:48;60052.50;;;-140.67;51.06
2294;BME280;1155;42.644;23.264;2023-04-01T02:53:15;60019.75;;;-140.67;51.78
2294;BME280;1155;42.644;23.264;2023-04-01T02:55:42;60066.84;;;-140.67;50.73
2294;BME280;1155;42.644;23.264;2023-04-01T02:58:11;60052.50;;;-140.67;43.10
2294;BME280;1155;42.644;23.264;2023-04-01T03:00:38;60030.00;;;-140.67;43.86
2294;BME280;1155;42.644;23.264;2023-04-01T03:03:05;60044.31;;;-140.67;40.61
2294;BME280;1155;42.644;23.264;2023-04-01T03:05:32;60036.13;;;-140.67;35.54
2294;BME280;1155;42.644;23.264;2023-04-01T03:07:59;60036.13;;;-140.67;34.47
2294;BME280;1155;42.644;23.264;2023-04-01T03:10:26;60060.69;;;-140.67;36.40
2294;BME280;1155;42.644;23.264;2023-04-01T03:12:53;60009.50;;;-140.67;36.71
2294;BME280;1155;42.644;23.264;2023-04-01T03:15:23;60048.41;;;-140.67;37.77
2294;BME280;1155;42.644;23.264;2023-04-01T03:17:49;60036.13;;;-140.67;38.73
2294;BME280;1155;42.644;23.264;2023-04-01T03:20:17;60048.41;;;-140.67;40.08
2294;BME280;1155;42.644;23.264;2023-04-01T03:22:44;60054.56;;;-140.67;44.32
2294;BME280;1155;42.644;23.264;2023-04-01T03:25:12;60060.69;;;-140.67;49.13
2294;BME280;1155;42.644;23.264;2023-04-01T03:27:39;59999.28;;;-140.67;48.00
2294;BME280;1155;42.644;23.264;2023-04-01T03:30:07;60050.47;;;-140.67;44.44
2294;BME280;1155;42.644;23.264;2023-04-01T03:32:36;60040.22;;;-140.67;46.55
2294;BME280;1155;42.644;23.264;2023-04-01T03:35:03;60032.03;;;-140.67;51.85
2294;BME280;1155;42.644;23.264;2023-04-01T03:37:30;60023.84;;;-140.67;46.44
2294;BME280;1155;42.644;23.264;2023-04-01T03:39:57;60056.59;;;-140.67;53.46
2294;BME280;1155;42.644;23.264;2023-04-01T03:42:24;60056.59;;;-140.67;58.80
2294;BME280;1155;42.644;23.264;2023-04-01T03:44:51;60023.84;;;-140.67;57.79
2294;BME280;1155;42.644;23.264;2023-04-01T03:47:18;60064.78;;;-140.67;63.74
2294;BME280;1155;42.644;23.264;2023-04-01T03:49:46;60056.59;;;-140.67;77.14
2294;BME280;1155;42.644;23.264;2023-04-01T03:52:13;60034.09;;;-140.67;84.57
2294;BME280;1155;42.644;23.264;2023-04-01T03:54:40;60034.09;;;-140.67;87.73
2294;BME280;1155;42.644;23.264;2023-04-01T03:57:07;60054.56;;;-140.67;70.31
2294;BME280;1155;42.644;23.264;2023-04-01T03:59:34;60040.22;;;-140.67;74.95
2294;BME280;1155;42.644;23.264;2023-04-01T04:02:01;60066.84;;;-140.67;68.84
2294;BME280;1155;42.644;23.264;2023-04-01T04:04:28;60058.66;;;-140.67;69.25
2294;BME280;1155;42.644;23.264;2023-04-01T04:06:56;60040.22;;;-140.67;65.27
2294;BME280;1155;42.644;23.264;2023-04-01T04:09:23;60060.69;;;-140.67;69.36
2294;BME280;1155;42.644;23.264;2023-04-01T04:11:50;60052.50;;;-140.67;77.50
2294;BME280;1155;42.644;23.264;2023-04-01T04:14:17;60003.38;;;-140.67;76.82
2294;BME280;1155;42.644;23.264;2023-04-01T04:16:44;60044.31;;;-140.67;63.30
2294;BME280;1155;42.644;23.264;2023-04-01T04:19:11;60058.66;;;-140.67;59.64
2294;BME280;1155;42.644;23.264;2023-04-01T04:21:39;60064.78;;;-140.67;61.85
2294;BME280;1155;42.644;23.264;2023-04-01T04:24:07;60038.19;;;-140.67;63.05
2294;BME280;1155;42.644;23.264;2023-04-01T04:26:36;60077.09;;;-140.67;63.77
2294;BME280;1155;42.644;23.264;2023-04-01T04:29:05;60036.13;;;-140.67;65.32
2294;BME280;1155;42.644;23.264;2023-04-01T04:31:36;60034.09;;;-140.67;71.08
2294;BME280;1155;42.644;23.264;2023-04-01T04:34:03;60030.00;;;-140.67;69.14
2294;BME280;1155;42.644;23.264;2023-04-01T04:36:30;60058.66;;;-140.67;68.84
2294;BME280;1155;42.644;23.264;2023-04-01T04:38:57;60032.03;;;-140.67;71.08
2294;BME280;1155;42.644;23.264;2023-04-01T04:41:28;60050.47;;;-140.67;62.97
2294;BME280;1155;42.644;23.264;2023-04-01T04:43:56;60050.47;;;-140.67;69.12
2294;BME280;1155;42.644;23.264;2023-04-01T04:46:24;60052.50;;;-140.67;69.60
2294;BME280;1155;42.644;23.264;2023-04-01T04:48:51;60046.38;;;-140.67;66.92
2294;BME280;1155;42.644;23.264;2023-04-01T04:51:19;60052.50;;;-140.67;70.46
2294;BME280;1155;42.644;23.264;2023-04-01T04:53:46;60066.84;;;-140.67;70.62
2294;BME280;1155;42.644;23.264;2023-04-01T04:56:16;60048.41;;;-140.67;73.00
2294;BME280;1155;42.644;23.264;2023-04-01T04:58:45;60064.78;;;-140.67;76.14
2294;BME280;1155;42.644;23.264;2023-04-01T05:01:13;60068.88;;;-140.67;80.27
2294;BME280;1155;42.644;23.264;2023-04-01T05:03:41;60030.00;;;-140.67;89.85
2294;BME280;1155;42.644;23.264;2023-04-01T05:06:11;60034.09;;;-140.67;92.17
2294;BME280;1155;42.644;23.264;2023-04-01T05:08:38;60052.50;;;-140.67;100.00
2294;BME280;1155;42.644;23.264;2023-04-01T05:11:07;60036.13;;;-140.67;100.00
2294;BME280;1155;42.644;23.264;2023-04-01T05:13:36;60032.03;;;-140.67;100.00
2294;BME280;1155;42.644;23.264;2023-04-01T05:16:08;60062.75;;;-140.67;100.00
2294;BME280;1155;42.644;23.264;2023-04-01T05:19:05;60068.88;;;-140.67;100.00
2294;BME280;1155;42.644;23.264;2023-04-01T05:21:36;60060.69;;;-140.67;100.00
2294;BME280;1155;42.644;23.264;2023-04-01T05:24:03;60052.50;;;-140.67;100.00
2294;BME280;1155;42.644;23.264;2023-04-01T05:26:33;60073.00;;;-140.67;100.00
2294;BME280;1155;42.644;23.264;2023-04-01T05:29:00;60052.50;;;-140.67;88.76
2294;BME280;1155;42.644;23.264;2023-04-01T05:31:28;60052.50;;;-140.67;97.67
2294;BME280;1155;42.644;23.264;2023-04-01T05:33:55;60034.09;;;-140.67;100.00
2294;BME280;1155;42.644;23.264;2023-04-01T05:36:22;60048.41;;;-140.67;90.25
2294;BME280;1155;42.644;23.264;2023-04-01T05:38:49;60064.78;;;-140.67;90.65
2294;BME280;1155;42.644;23.264;2023-04-01T05:41:16;60062.75;;;-140.67;95.41
2294;BME280;1155;42.644;23.264;2023-04-01T05:43:43;60034.09;;;-140.67;98.79
2294;BME280;1155;42.644;23.264;2023-04-01T05:46:10;60060.69;;;-140.67;90.63
2294;BME280;1155;42.644;23.264;2023-04-01T05:48:38;60048.41;;;-140.67;77.74
2294;BME280;1155;42.644;23.264;2023-04-01T05:51:05;60062.75;;;-140.67;73.25
2294;BME280;1155;42.644;23.264;2023-04-01T05:53:32;60081.19;;;-140.67;61.77
2294;BME280;1155;42.644;23.264;2023-04-01T05:56:02;60056.59;;;-140.67;58.87
2294;BME280;1155;42.644;23.264;2023-04-01T05:58:29;60068.88;;;-140.67;51.65
2294;BME280;1155;42.644;23.264;2023-04-01T06:01:00;60062.75;;;-140.67;52.44
2294;BME280;1155;42.644;23.264;2023-04-01T06:03:28;60079.13;;;-140.67;51.53
2294;BME280;1155;42.644;23.264;2023-04-01T06:05:57;60062.75;;;-140.67;51.63
2294;BME280;1155;42.644;23.264;2023-04-01T06:08:24;60056.59;;;-140.67;52.40
2294;BME280;1155;42.644;23.264;2023-04-01T06:11:12;60068.88;;;-140.67;49.31
2294;BME280;1155;42.644;23.264;2023-04-01T06:13:56;60070.94;;;-140.67;48.95
2294;BME280;1155;42.644;23.264;2023-04-01T06:16:39;60064.78;;;-140.67;46.69
2294;BME280;1155;42.644;23.264;2023-04-01T06:19:18;60062.75;;;-140.67;44.30
2294;BME280;1155;42.644;23.264;2023-04-01T06:25:18;60077.09;;;-140.67;43.78
2294;BME280;1155;42.644;23.264;2023-04-01T06:28:01;60083.22;;;-140.67;42.29
2294;BME280;1155;42.644;23.264;2023-04-01T06:30:40;60064.78;;;-140.67;42.85
2294;BME280;1155;42.644;23.264;2023-04-01T06:42:23;60060.69;;;-140.67;41.75
2294;BME280;1155;42.644;23.264;2023-04-01T06:45:07;60077.09;;;-140.67;41.02
2294;BME280;1155;42.644;23.264;2023-04-01T06:47:46;60052.50;;;-140.67;41.53
2294;BME280;1155;42.644;23.264;2023-04-01T06:50:24;60048.41;;;-140.67;41.66
2294;BME280;1155;42.644;23.264;2023-04-01T06:52:59;60044.31;;;-140.67;40.59
2294;BME280;1155;42.644;23.264;2023-04-01T06:55:32;60068.88;;;-140.67;40.70
2294;BME280;1155;42.644;23.264;2023-04-01T06:58:13;60062.75;;;-140.67;39.81
2294;BME280;1155;42.644;23.264;2023-04-01T07:00:46;60042.28;;;-140.67;41.17
2294;BME280;1155;42.644;23.264;2023-04-01T07:03:21;60077.09;;;-140.67;40.92
2294;BME280;1155;42.644;23.264;2023-04-01T07:05:49;60075.03;;;-140.67;39.98
2294;BME280;1155;42.644;23.264;2023-04-01T07:08:20;60056.59;;;-140.67;39.85
2294;BME280;1155;42.644;23.264;2023-04-01T07:10:52;60087.31;;;-140.67;41.55
2294;BME280;1155;42.644;23.264;2023-04-01T07:13:25;60073.00;;;-140.67;39.67
2294;BME280;1155;42.644;23.264;2023-04-01T07:16:00;60077.09;;;-140.67;40.42
2294;BME280;1155;42.644;23.264;2023-04-01T07:18:34;60058.66;;;-140.67;38.00
2294;BME280;1155;42.644;23.264;2023-04-01T07:21:04;60056.59;;;-140.67;38.07
2294;BME280;1155;42.644;23.264;2023-04-01T07:23:40;60077.09;;;-140.67;37.51
2294;BME280;1155;42.644;23.264;2023-04-01T07:26:15;60070.94;;;-140.67;39.12
2294;BME280;1155;42.644;23.264;2023-04-01T07:28:44;60052.50;;;-140.67;38.76
2294;BME280;1155;42.644;23.264;2023-04-01T07:31:20;60068.88;;;-140.67;37.93
2294;BME280;1155;42.644;23.264;2023-04-01T07:33:59;60097.56;;;-140.67;34.73
2294;BME280;1155;42.644;23.264;2023-04-01T07:36:33;60073.00;;;-140.67;37.78
2294;BME280;1155;42.644;23.264;2023-04-01T07:39:11;60056.59;;;-140.67;35.96
2294;BME280;1155;42.644;23.264;2023-04-01T07:41:50;60073.00;;;-140.67;35.66
2294;BME280;1155;42.644;23.264;2023-04-01T07:44:25;60060.69;;;-140.67;38.22
2294;BME280;1155;42.644;23.264;2023-04-01T07:47:29;60079.13;;;-140.67;39.48
2294;BME280;1155;42.644;23.264;2023-04-01T07:50:08;60077.09;;;-140.67;39.21
2294;BME280;1155;42.644;23.264;2023-04-01T07:52:44;60077.09;;;-140.67;39.94
2294;BME280;1155;42.644;23.264;2023-04-01T07:55:16;60056.59;;;-140.67;41.70
2294;BME280;1155;42.644;23.264;2023-04-01T07:57:49;60052.50;;;-140.67;41.14
2294;BME280;1155;42.644;23.264;2023-04-01T08:00:22;60077.09;;;-140.67;43.53
2294;BME280;1155;42.644;23.264;2023-04-01T08:03:03;60066.84;;;-140.67;44.29
2294;BME280;1155;42.644;23.264;2023-04-01T08:05:40;60064.78;;;-140.67;43.34
2294;BME280;1155;42.644;23.264;2023-04-01T08:08:16;60068.88;;;-140.67;43.24
2294;BME280;1155;42.644;23.264;2023-04-01T08:10:47;60052.50;;;-140.67;42.88
2294;BME280;1155;42.644;23.264;2023-04-01T08:13:25;60073.00;;;-140.67;42.98
2294;BME280;1155;42.644;23.264;2023-04-01T08:16:04;60085.28;;;-140.67;42.00
2294;BME280;1155;42.644;23.264;2023-04-01T08:18:39;60066.84;;;-140.67;42.44
2294;BME280;1155;42.644;23.264;2023-04-01T08:21:12;60075.03;;;-140.67;42.23
2294;BME280;1155;42.644;23.264;2023-04-01T08:23:43;60079.13;;;-140.67;40.68
2294;BME280;1155;42.644;23.264;2023-04-01T08:26:18;60070.94;;;-140.67;39.66
2294;BME280;1155;42.644;23.264;2023-04-01T08:28:53;60083.22;;;-140.67;40.44
2294;BME280;1155;42.644;23.264;2023-04-01T08:31:29;60087.31;;;-140.67;38.36
2294;BME280;1155;42.644;23.264;2023-04-01T08:33:56;60118.03;;;-140.67;37.09
2294;BME280;1155;42.644;23.264;2023-04-01T08:36:26;60107.78;;;-140.67;34.31
2294;BME280;1155;42.644;23.264;2023-04-01T08:39:02;60148.75;;;-140.67;32.34
2294;BME280;1155;42.644;23.264;2023-04-01T08:41:41;60122.13;;;-140.67;32.81
2294;BME280;1155;42.644;23.264;2023-04-01T08:44:32;60118.03;;;-140.67;31.84
2294;BME280;1155;42.644;23.264;2023-04-01T08:50:41;60138.50;;;-140.67;31.55
2294;BME280;1155;42.644;23.264;2023-04-01T08:53:23;60150.81;;;-140.67;29.07
2294;BME280;1155;42.644;23.264;2023-04-01T08:56:06;60142.59;;;-140.67;28.59
2294;BME280;1155;42.644;23.264;2023-04-01T08:58:54;60150.81;;;-140.67;27.73
2294;BME280;1155;42.644;23.264;2023-04-01T09:01:37;60126.22;;;-140.67;28.74
2294;BME280;1155;42.644;23.264;2023-04-01T09:04:25;60109.84;;;-140.67;29.43
2294;BME280;1155;42.644;23.264;2023-04-01T09:07:06;60093.47;;;-140.67;31.95
2294;BME280;1155;42.644;23.264;2023-04-01T09:13:13;60128.28;;;-140.67;32.50
2294;BME280;1155;42.644;23.264;2023-04-01T09:16:13;60101.66;;;-140.67;30.88
2294;BME280;1155;42.644;23.264;2023-04-01T09:19:02;60134.41;;;-140.67;31.20
2294;BME280;1155;42.644;23.264;2023-04-01T09:21:56;60122.13;;;-140.67;29.91
2294;BME280;1155;42.644;23.264;2023-04-01T09:24:52;60105.75;;;-140.67;31.67
2294;BME280;1155;42.644;23.264;2023-04-01T09:27:27;60118.03;;;-140.67;31.99
2294;BME280;1155;42.644;23.264;2023-04-01T09:30:33;60081.19;;;-140.67;31.47
2294;BME280;1155;42.644;23.264;2023-04-01T09:36:10;60113.94;;;-140.67;29.43
2294;BME280;1155;42.644;23.264;2023-04-01T09:38:52;60142.59;;;-140.67;29.83
2294;BME280;1155;42.644;23.264;2023-04-01T09:41:29;60150.81;;;-140.67;28.73
2294;BME280;1155;42.644;23.264;2023-04-01T09:44:02;60130.31;;;-140.67;25.70
2294;BME280;1155;42.644;23.264;2023-04-01T09:46:42;60130.31;;;-140.67;24.84
2294;BME280;1155;42.644;23.264;2023-04-01T09:49:30;60130.31;;;-140.67;23.88
2294;BME280;1155;42.644;23.264;2023-04-01T09:52:16;60167.19;;;-140.67;23.20
2294;BME280;1155;42.644;23.264;2023-04-01T09:55:03;60167.19;;;-140.67;23.56
2294;BME280;1155;42.644;23.264;2023-04-01T09:58:15;60163.09;;;-140.67;22.43
2294;BME280;1155;42.644;23.264;2023-04-01T10:01:00;60105.75;;;-140.67;23.24
2294;BME280;1155;42.644;23.264;2023-04-01T10:04:23;60130.31;;;-140.67;23.75
2294;BME280;1155;42.644;23.264;2023-04-01T10:13:42;60156.94;;;-140.67;24.35
2294;BME280;1155;42.644;23.264;2023-04-01T10:16:30;60136.47;;;-140.67;25.44
2294;BME280;1155;42.644;23.264;2023-04-01T10:19:31;60163.09;;;-140.67;26.05
2294;BME280;1155;42.644;23.264;2023-04-01T10:25:29;60124.19;;;-140.67;21.99
2294;BME280;1155;42.644;23.264;2023-04-01T10:31:16;60142.59;;;-140.67;23.16
2294;BME280;1155;42.644;23.264;2023-04-01T10:34:03;60148.75;;;-140.67;22.76
2294;BME280;1155;42.644;23.264;2023-04-01T10:36:47;60154.91;;;-140.67;23.29
2294;BME280;1155;42.644;23.264;2023-04-01T10:39:34;60165.13;;;-140.67;23.42
2294;BME280;1155;42.644;23.264;2023-04-01T10:45:44;60142.59;;;-140.67;24.52
2294;BME280;1155;42.644;23.264;2023-04-01T10:57:28;60144.66;;;-140.67;23.49
2294;BME280;1155;42.644;23.264;2023-04-01T11:00:26;60146.72;;;-140.67;23.41
2294;BME280;1155;42.644;23.264;2023-04-01T11:03:39;60124.19;;;-140.67;24.31
2294;BME280;1155;42.644;23.264;2023-04-01T11:10:02;60159.00;;;-140.67;23.54
2294;BME280;1155;42.644;23.264;2023-04-01T11:15:58;60111.91;;;-140.67;25.02
2294;BME280;1155;42.644;23.264;2023-04-01T11:18:59;60152.84;;;-140.67;24.94
2294;BME280;1155;42.644;23.264;2023-04-01T11:21:53;60118.03;;;-140.67;25.43
2294;BME280;1155;42.644;23.264;2023-04-01T11:27:32;60105.75;;;-140.67;28.97
2294;BME280;1155;42.644;23.264;2023-04-01T11:30:21;60085.28;;;-140.67;30.80
2294;BME280;1155;42.644;23.264;2023-04-01T11:32:54;60099.59;;;-140.67;31.35
2294;BME280;1155;42.644;23.264;2023-04-01T11:35:45;60066.84;;;-140.67;30.99
2294;BME280;1155;42.644;23.264;2023-04-01T11:38:30;60073.00;;;-140.67;33.95
2294;BME280;1155;42.644;23.264;2023-04-01T11:41:06;60068.88;;;-140.67;41.71
2294;BME280;1155;42.644;23.264;2023-04-01T11:43:42;60060.69;;;-140.67;60.28
2294;BME280;1155;42.644;23.264;2023-04-01T11:46:17;60060.69;;;-140.67;69.02
2294;BME280;1155;42.644;23.264;2023-04-01T11:48:56;60032.03;;;-140.67;100.00
2294;BME280;1155;42.644;23.264;2023-04-01T11:51:50;60052.50;;;-140.67;100.00
2294;BME280;1155;42.644;23.264;2023-04-01T11:57:29;60060.69;;;-140.67;100.00
2294;BME280;1155;42.644;23.264;2023-04-01T12:00:12;60044.31;;;-140.67;100.00
2294;BME280;1155;42.644;23.264;2023-04-01T12:03:15;60040.22;;;-140.67;100.00
2294;BME280;1155;42.644;23.264;2023-04-01T12:05:46;60062.75;;;-140.67;100.00
2294;BME280;1155;42.644;23.264;2023-04-01T12:08:34;60081.19;;;-140.67;100.00
2294;BME280;1155;42.644;23.264;2023-04-01T12:11:09;60064.78;;;-140.67;100.00
2294;BME280;1155;42.644;23.264;2023-04-01T12:13:48;60062.75;;;-140.67;100.00
2294;BME280;1155;42.644;23.264;2023-04-01T12:16:29;60062.75;;;-140.67;100.00
2294;BME280;1155;42.644;23.264;2023-04-01T12:19:08;60060.69;;;-140.67;100.00
2294;BME280;1155;42.644;23.264;2023-04-01T12:21:37;60054.56;;;-140.67;100.00
2294;BME280;1155;42.644;23.264;2023-04-01T12:27:16;60079.13;;;-140.67;100.00
2294;BME280;1155;42.644;23.264;2023-04-01T12:30:02;60048.41;;;-140.67;100.00
2294;BME280;1155;42.644;23.264;2023-04-01T12:32:40;60064.78;;;-140.67;100.00
2294;BME280;1155;42.644;23.264;2023-04-01T12:35:17;60058.66;;;-140.67;100.00
2294;BME280;1155;42.644;23.264;2023-04-01T12:37:52;60064.78;;;-140.67;100.00
2294;BME280;1155;42.644;23.264;2023-04-01T12:40:51;60066.84;;;-140.67;100.00
2294;BME280;1155;42.644;23.264;2023-04-01T12:43:49;60070.94;;;-140.67;100.00
2294;BME280;1155;42.644;23.264;2023-04-01T12:46:28;60044.31;;;-140.67;100.00
2294;BME280;1155;42.644;23.264;2023-04-01T12:49:26;60089.38;;;-140.67;100.00
2294;BME280;1155;42.644;23.264;2023-04-01T12:52:06;60081.19;;;-140.67;100.00
2294;BME280;1155;42.644;23.264;2023-04-01T12:55:02;60075.03;;;-140.67;100.00
2294;BME280;1155;42.644;23.264;2023-04-01T13:01:00;60060.69;;;-140.67;100.00
2294;BME280;1155;42.644;23.264;2023-04-01T13:03:54;60068.88;;;-140.67;100.00
2294;BME280;1155;42.644;23.264;2023-04-01T13:06:39;60073.00;;;-140.67;100.00
2294;BME280;1155;42.644;23.264;2023-04-01T13:09:24;60054.56;;;-140.67;100.00
2294;BME280;1155;42.644;23.264;2023-04-01T13:12:17;60087.31;;;-140.67;100.00
2294;BME280;1155;42.644;23.264;2023-04-01T13:15:23;60068.88;;;-140.67;100.00
2294;BME280;1155;42.644;23.264;2023-04-01T13:17:58;60099.59;;;-140.67;100.00
2294;BME280;1155;42.644;23.264;2023-04-01T13:20:40;60079.13;;;-140.67;100.00
2294;BME280;1155;42.644;23.264;2023-04-01T13:23:24;60097.56;;;-140.67;100.00
2294;BME280;1155;42.644;23.264;2023-04-01T13:26:05;60091.41;;;-140.67;80.65
2294;BME280;1155;42.644;23.264;2023-04-01T13:28:38;60062.75;;;-140.67;100.00
2294;BME280;1155;42.644;23.264;2023-04-01T13:31:09;60073.00;;;-140.67;94.65
2294;BME280;1155;42.644;23.264;2023-04-01T13:33:47;60093.47;;;-140.67;86.74
2294;BME280;1155;42.644;23.264;2023-04-01T13:36:22;60073.00;;;-140.67;90.47
2294;BME280;1155;42.644;23.264;2023-04-01T13:39:19;60066.84;;;-140.67;75.90
2294;BME280;1155;42.644;23.264;2023-04-01T13:42:01;60073.00;;;-140.67;75.15
2294;BME280;1155;42.644;23.264;2023-04-01T13:44:36;60064.78;;;-140.67;65.63
2294;BME280;1155;42.644;23.264;2023-04-01T13:47:17;60087.31;;;-140.67;51.50
2294;BME280;1155;42.644;23.264;2023-04-01T13:53:11;60122.13;;;-140.67;37.68
2294;BME280;1155;42.644;23.264;2023-04-01T13:55:50;60138.50;;;-140.67;32.92
2294;BME280;1155;42.644;23.264;2023-04-01T13:58:47;60179.47;;;-140.67;30.29
2294;BME280;1155;42.644;23.264;2023-04-01T14:01:23;60208.13;;;-140.67;28.29
2294;BME280;1155;42.644;23.264;2023-04-01T14:04:19;60144.66;;;-140.67;27.66
2294;BME280;1155;42.644;23.264;2023-04-01T14:06:59;60118.03;;;-140.67;34.71
2294;BME280;1155;42.644;23.264;2023-04-01T14:09:44;60077.09;;;-140.67;38.62
2294;BME280;1155;42.644;23.264;2023-04-01T14:12:21;60056.59;;;-140.67;41.19
2294;BME280;1155;42.644;23.264;2023-04-01T14:15:01;60052.50;;;-140.67;44.92
2294;BME280;1155;42.644;23.264;2023-04-01T14:17:44;60062.75;;;-140.67;43.32
2294;BME280;1155;42.644;23.264;2023-04-01T14:20:28;60085.28;;;-140.67;37.91
2294;BME280;1155;42.644;23.264;2023-04-01T14:23:08;60113.94;;;-140.67;31.95
2294;BME280;1155;42.644;23.264;2023-04-01T14:28:44;60109.84;;;-140.67;34.05
2294;BME280;1155;42.644;23.264;2023-04-01T14:31:34;60073.00;;;-140.67;36.12
2294;BME280;1155;42.644;23.264;2023-04-01T14:34:17;60111.91;;;-140.67;32.00
2294;BME280;1155;42.644;23.264;2023-04-01T14:37:13;60118.03;;;-140.67;30.15
2294;BME280;1155;42.644;23.264;2023-04-01T14:40:04;60140.56;;;-140.67;27.64
2294;BME280;1155;42.644;23.264;2023-04-01T14:43:01;60169.22;;;-140.67;25.99
2294;BME280;1155;42.644;23.264;2023-04-01T14:45:46;60199.94;;;-140.67;24.64
2294;BME280;1155;42.644;23.264;2023-04-01T14:48:25;60249.09;;;-140.67;22.76
2294;BME280;1155;42.644;23.264;2023-04-01T14:50:57;60255.22;;;-140.67;22.65